sensor_id;sensor_type;location;lat;lon;timestamp;P1;P2;P0
45788;PMS7003;31492;54.856;26.318;2023-02-28T00:01:37;4.9;3.8;2.8
45788;PMS7003;31492;54.856;26.318;2023-02-28T00:06:31;6;4.2;2.9
45788;PMS7003;31492;54.856;26.318;2023-02-28T00:11:45;5.2;4.2;2.9
45788;PMS7003;31492;54.856;26.318;2023-02-28T00:16:37;4.3;4.1;2.9
45788;PMS7003;31492;54.856;26.318;2023-02-28T00:21:11;5.7;4.6;3.3
45788;PMS7003;31492;54.856;26.318;2023-02-28T00:26:25;5.6;4.1;3
45788;PMS7003;31492;54.856;26.318;2023-02-28T00:31:17;5;4.1;3
45788;PMS7003;31492;54.856;26.318;2023-02-28T00:36:11;5.2;4;2.9
45788;PMS7003;31492;54.856;26.318;2023-02-28T00:41:23;4.1;3.3;2.3
45788;PMS7003;31492;54.856;26.318;2023-02-28T00:46:11;6;4.3;2.9
45788;PMS7003;31492;54.856;26.318;2023-02-28T00:51:25;6.1;4.2;2.9
45788;PMS7003;31492;54.856;26.318;2023-02-28T00:56:19;6.3;5.4;3.8
45788;PMS7003;31492;54.856;26.318;2023-02-28T01:01:37;6.3;4.8;3.1
45788;PMS7003;31492;54.856;26.318;2023-02-28T01:06:37;5.7;4.4;3.3
45788;PMS7003;31492;54.856;26.318;2023-02-28T01:11:12;5.9;4.9;3.5
45788;PMS7003;31492;54.856;26.318;2023-02-28T01:16:11;5.9;4.4;3.1
45788;PMS7003;31492;54.856;26.318;2023-02-28T01:21:20;5.7;4.7;3.2
45788;PMS7003;31492;54.856;26.318;2023-02-28T01:26:12;5.6;4.7;3.4
45788;PMS7003;31492;54.856;26.318;2023-02-28T01:31:11;6.2;5.2;3.4
45788;PMS7003;31492;54.856;26.318;2023-02-28T01:36:12;5.6;4.9;3.2
45788;PMS7003;31492;54.856;26.318;2023-02-28T01:41:14;5.7;4.7;3.5
45788;PMS7003;31492;54.856;26.318;2023-02-28T01:46:35;6;5.1;3.5
45788;PMS7003;31492;54.856;26.318;2023-02-28T01:51:24;6.2;4.6;3.2
45788;PMS7003;31492;54.856;26.318;2023-02-28T01:56:17;5;3.6;2.4
45788;PMS7003;31492;54.856;26.318;2023-02-28T02:01:11;4.9;4.2;3.2
45788;PMS7003;31492;54.856;26.318;2023-02-28T02:06:26;5.5;4.3;3.1
45788;PMS7003;31492;54.856;26.318;2023-02-28T02:11:23;4.9;4;2.6
45788;PMS7003;31492;54.856;26.318;2023-02-28T02:16:14;5.6;4.2;3.1
45788;PMS7003;31492;54.856;26.318;2023-02-28T02:21:32;4.5;3.1;2.3
45788;PMS7003;31492;54.856;26.318;2023-02-28T02:26:42;4.7;4.1;2.7
45788;PMS7003;31492;54.856;26.318;2023-02-28T02:31:29;4.6;4.1;3.1
45788;PMS7003;31492;54.856;26.318;2023-02-28T02:36:35;6.1;4.2;2.8
45788;PMS7003;31492;54.856;26.318;2023-02-28T02:41:12;5.1;3.9;2.9
45788;PMS7003;31492;54.856;26.318;2023-02-28T02:46:32;5.3;4.2;2.8
45788;PMS7003;31492;54.856;26.318;2023-02-28T02:51:25;13.4;11.1;8.6
45788;PMS7003;31492;54.856;26.318;2023-02-28T02:56:11;30.7;25.4;17.4
45788;PMS7003;31492;54.856;26.318;2023-02-28T03:01:18;5.5;3.9;2.7
45788;PMS7003;31492;54.856;26.318;2023-02-28T03:06:59;5.2;4.2;3.1
45788;PMS7003;31492;54.856;26.318;2023-02-28T03:11:12;4.7;4.2;3.3
45788;PMS7003;31492;54.856;26.318;2023-02-28T03:16:17;5.6;4.7;3.4
45788;PMS7003;31492;54.856;26.318;2023-02-28T03:21:26;6;4.7;3.3
45788;PMS7003;31492;54.856;26.318;2023-02-28T03:26:20;6.5;5.1;3.9
45788;PMS7003;31492;54.856;26.318;2023-02-28T03:31:13;6.1;4.4;3.2
45788;PMS7003;31492;54.856;26.318;2023-02-28T03:36:12;7.3;5.1;3.6
45788;PMS7003;31492;54.856;26.318;2023-02-28T03:41:12;7;5.3;3.9
45788;PMS7003;31492;54.856;26.318;2023-02-28T03:46:12;8.8;7.1;5.5
45788;PMS7003;31492;54.856;26.318;2023-02-28T03:51:12;7.7;6.6;5
45788;PMS7003;31492;54.856;26.318;2023-02-28T03:56:27;7;5.7;4.5
45788;PMS7003;31492;54.856;26.318;2023-02-28T04:01:30;7;5.8;4.4
45788;PMS7003;31492;54.856;26.318;2023-02-28T04:06:25;11.9;8.9;7.2
45788;PMS7003;31492;54.856;26.318;2023-02-28T04:11:27;9.6;7.7;5.6
45788;PMS7003;31492;54.856;26.318;2023-02-28T04:16:47;8;6.9;5
45788;PMS7003;31492;54.856;26.318;2023-02-28T04:21:25;10;8.4;7
45788;PMS7003;31492;54.856;26.318;2023-02-28T04:26:43;7.7;5.9;4.3
45788;PMS7003;31492;54.856;26.318;2023-02-28T04:31:11;12.9;11.4;9.2
45788;PMS7003;31492;54.856;26.318;2023-02-28T04:36:11;9.5;8.1;6.5
45788;PMS7003;31492;54.856;26.318;2023-02-28T04:41:19;7.8;6.7;4.9
45788;PMS7003;31492;54.856;26.318;2023-02-28T04:46:11;5.8;4.5;3.2
45788;PMS7003;31492;54.856;26.318;2023-02-28T04:51:23;6.4;5.1;3.7
45788;PMS7003;31492;54.856;26.318;2023-02-28T04:56:12;6.9;4.6;3
45788;PMS7003;31492;54.856;26.318;2023-02-28T05:01:37;9.8;8.3;6.5
45788;PMS7003;31492;54.856;26.318;2023-02-28T05:06:11;8.1;7.3;5.2
45788;PMS7003;31492;54.856;26.318;2023-02-28T05:11:26;6.7;5.7;4.2
45788;PMS7003;31492;54.856;26.318;2023-02-28T05:16:23;6.1;5.1;3.9
45788;PMS7003;31492;54.856;26.318;2023-02-28T05:21:27;8.5;7.5;5.7
45788;PMS7003;31492;54.856;26.318;2023-02-28T05:26:23;11.5;10.8;8.5
45788;PMS7003;31492;54.856;26.318;2023-02-28T05:31:17;8.7;6.4;4.8
45788;PMS7003;31492;54.856;26.318;2023-02-28T05:36:25;28;24;18.6
45788;PMS7003;31492;54.856;26.318;2023-02-28T05:41:17;24.9;22.2;17
45788;PMS7003;31492;54.856;26.318;2023-02-28T05:46:23;7.1;5.6;3.5
45788;PMS7003;31492;54.856;26.318;2023-02-28T05:51:11;11.1;9;6.8
45788;PMS7003;31492;54.856;26.318;2023-02-28T05:56:11;8.5;7.3;5.4
45788;PMS7003;31492;54.856;26.318;2023-02-28T06:01:38;7.4;5.7;3.9
45788;PMS7003;31492;54.856;26.318;2023-02-28T06:06:29;8.4;6.6;4.7
45788;PMS7003;31492;54.856;26.318;2023-02-28T06:11:11;7.4;5.9;4.3
45788;PMS7003;31492;54.856;26.318;2023-02-28T06:16:11;8.9;7.5;5.4
45788;PMS7003;31492;54.856;26.318;2023-02-28T06:21:19;9.6;7.6;6
45788;PMS7003;31492;54.856;26.318;2023-02-28T06:26:37;9.8;7.8;5.1
45788;PMS7003;31492;54.856;26.318;2023-02-28T06:31:23;9.7;7.8;5.8
45788;PMS7003;31492;54.856;26.318;2023-02-28T06:36:12;8.9;6.9;5.5
45788;PMS7003;31492;54.856;26.318;2023-02-28T06:41:24;9.5;7.5;5.1
45788;PMS7003;31492;54.856;26.318;2023-02-28T06:46:31;8.6;7.8;5.3
45788;PMS7003;31492;54.856;26.318;2023-02-28T06:51:12;9;6.8;5.2
45788;PMS7003;31492;54.856;26.318;2023-02-28T06:56:12;8.2;6.1;4.3
45788;PMS7003;31492;54.856;26.318;2023-02-28T07:01:37;6.9;5.1;3.8
45788;PMS7003;31492;54.856;26.318;2023-02-28T07:06:11;9.2;6.5;4.6
45788;PMS7003;31492;54.856;26.318;2023-02-28T07:11:11;7.4;5.4;4
45788;PMS7003;31492;54.856;26.318;2023-02-28T07:16:25;7.4;6.4;4.7
45788;PMS7003;31492;54.856;26.318;2023-02-28T07:21:23;9;6.3;4.9
45788;PMS7003;31492;54.856;26.318;2023-02-28T07:26:25;7.6;5.8;3.9
45788;PMS7003;31492;54.856;26.318;2023-02-28T07:31:31;7.4;6.1;4.2
45788;PMS7003;31492;54.856;26.318;2023-02-28T07:36:31;5.9;4.8;3.5
45788;PMS7003;31492;54.856;26.318;2023-02-28T07:41:25;6.4;5.4;3.8
45788;PMS7003;31492;54.856;26.318;2023-02-28T07:46:12;7.7;5.2;3.8
45788;PMS7003;31492;54.856;26.318;2023-02-28T07:51:23;6.7;5.1;3.4
45788;PMS7003;31492;54.856;26.318;2023-02-28T07:56:31;5.9;5;3.5
45788;PMS7003;31492;54.856;26.318;2023-02-28T08:01:11;5.7;4.3;3.3
45788;PMS7003;31492;54.856;26.318;2023-02-28T08:06:37;5.1;3.3;2.2
45788;PMS7003;31492;54.856;26.318;2023-02-28T08:11:11;6.1;3.8;2.8
45788;PMS7003;31492;54.856;26.318;2023-02-28T08:16:11;4.4;3.6;2.4
45788;PMS7003;31492;54.856;26.318;2023-02-28T08:21:11;5.3;4.2;2.8
45788;PMS7003;31492;54.856;26.318;2023-02-28T08:26:19;4.8;3.9;2.7
45788;PMS7003;31492;54.856;26.318;2023-02-28T08:31:25;6.1;4.4;3.2
45788;PMS7003;31492;54.856;26.318;2023-02-28T08:36:19;5.6;4.4;3
45788;PMS7003;31492;54.856;26.318;2023-02-28T08:41:23;5.6;3.7;2.8
45788;PMS7003;31492;54.856;26.318;2023-02-28T08:46:12;6.4;4.7;3.2
45788;PMS7003;31492;54.856;26.318;2023-02-28T08:51:31;4.6;4;2.6
45788;PMS7003;31492;54.856;26.318;2023-02-28T08:56:23;5.1;3.7;2.6
45788;PMS7003;31492;54.856;26.318;2023-02-28T09:01:31;6.9;5.2;3.4
45788;PMS7003;31492;54.856;26.318;2023-02-28T09:06:24;5.4;3.9;3
45788;PMS7003;31492;54.856;26.318;2023-02-28T09:11:31;5.8;4.8;3.2
45788;PMS7003;31492;54.856;26.318;2023-02-28T09:16:12;5.8;4.3;3.1
45788;PMS7003;31492;54.856;26.318;2023-02-28T09:21:37;4.4;3.9;2.6
45788;PMS7003;31492;54.856;26.318;2023-02-28T09:26:31;4.5;3.3;2
45788;PMS7003;31492;54.856;26.318;2023-02-28T09:31:24;5;3.8;2.7
45788;PMS7003;31492;54.856;26.318;2023-02-28T09:36:19;4.8;3.7;2.5
45788;PMS7003;31492;54.856;26.318;2023-02-28T09:41:32;4.6;2.8;1.9
45788;PMS7003;31492;54.856;26.318;2023-02-28T09:46:25;4.1;3.1;2.2
45788;PMS7003;31492;54.856;26.318;2023-02-28T09:51:13;3.6;2.2;1.8
45788;PMS7003;31492;54.856;26.318;2023-02-28T09:56:39;2.9;2.2;1.6
45788;PMS7003;31492;54.856;26.318;2023-02-28T10:01:24;2.2;1.7;1.4
45788;PMS7003;31492;54.856;26.318;2023-02-28T10:06:20;2.6;1.7;1.3
45788;PMS7003;31492;54.856;26.318;2023-02-28T10:11:23;1.9;1.3;1
45788;PMS7003;31492;54.856;26.318;2023-02-28T10:16:25;2.9;1.6;1.1
45788;PMS7003;31492;54.856;26.318;2023-02-28T10:21:15;2;1.1;0.7
45788;PMS7003;31492;54.856;26.318;2023-02-28T10:26:12;1.2;1;0.6
45788;PMS7003;31492;54.856;26.318;2023-02-28T10:31:11;2;1.2;1
45788;PMS7003;31492;54.856;26.318;2023-02-28T10:36:12;1.3;1.1;0.6
45788;PMS7003;31492;54.856;26.318;2023-02-28T10:41:26;2;1.3;0.8
45788;PMS7003;31492;54.856;26.318;2023-02-28T10:46:37;1.7;1;0.7
45788;PMS7003;31492;54.856;26.318;2023-02-28T10:51:21;2;1.3;0.8
45788;PMS7003;31492;54.856;26.318;2023-02-28T10:56:14;2.2;1.4;1.1
45788;PMS7003;31492;54.856;26.318;2023-02-28T11:01:12;1.9;1.4;0.9
45788;PMS7003;31492;54.856;26.318;2023-02-28T11:06:14;2.3;1.3;0.9
45788;PMS7003;31492;54.856;26.318;2023-02-28T11:11:11;1.8;1.3;1
45788;PMS7003;31492;54.856;26.318;2023-02-28T11:16:21;1.7;1.4;0.9
45788;PMS7003;31492;54.856;26.318;2023-02-28T11:21:15;1.8;1.3;1
45788;PMS7003;31492;54.856;26.318;2023-02-28T11:26:34;2;1.4;1
45788;PMS7003;31492;54.856;26.318;2023-02-28T11:31:17;1.5;1.2;0.9
45788;PMS7003;31492;54.856;26.318;2023-02-28T11:36:24;1.6;1.3;0.9
45788;PMS7003;31492;54.856;26.318;2023-02-28T11:41:17;2;1.3;1
45788;PMS7003;31492;54.856;26.318;2023-02-28T11:46:40;1.7;1.3;1
45788;PMS7003;31492;54.856;26.318;2023-02-28T11:51:27;1.6;1.2;0.8
45788;PMS7003;31492;54.856;26.318;2023-02-28T11:56:32;1.8;1.2;0.8
45788;PMS7003;31492;54.856;26.318;2023-02-28T12:01:38;1.5;1;0.7
45788;PMS7003;31492;54.856;26.318;2023-02-28T12:06:17;1.8;1.2;0.9
45788;PMS7003;31492;54.856;26.318;2023-02-28T12:11:12;1.8;1.4;1
45788;PMS7003;31492;54.856;26.318;2023-02-28T12:16:26;2.2;1.3;1.1
45788;PMS7003;31492;54.856;26.318;2023-02-28T12:21:35;1.7;1.4;1
45788;PMS7003;31492;54.856;26.318;2023-02-28T12:26:12;1.7;1.3;0.9
45788;PMS7003;31492;54.856;26.318;2023-02-28T12:31:23;1.9;1.2;0.9
45788;PMS7003;31492;54.856;26.318;2023-02-28T12:36:19;1.9;1.2;0.9
45788;PMS7003;31492;54.856;26.318;2023-02-28T12:41:26;1.5;1.3;0.8
45788;PMS7003;31492;54.856;26.318;2023-02-28T12:46:32;1.6;1.2;0.9
45788;PMS7003;31492;54.856;26.318;2023-02-28T12:51:24;1.3;1.1;0.7
45788;PMS7003;31492;54.856;26.318;2023-02-28T12:56:20;1;0.7;0.4
45788;PMS7003;31492;54.856;26.318;2023-02-28T13:06:27;1.4;1.1;0.8
45788;PMS7003;31492;54.856;26.318;2023-02-28T13:11:22;1.2;1;0.7
45788;PMS7003;31492;54.856;26.318;2023-02-28T13:16:11;1.5;1.2;0.8
45788;PMS7003;31492;54.856;26.318;2023-02-28T13:21:21;1.7;1.3;1
45788;PMS7003;31492;54.856;26.318;2023-02-28T13:26:29;1.7;1.2;0.8
45788;PMS7003;31492;54.856;26.318;2023-02-28T13:31:25;1.6;1;0.7
45788;PMS7003;31492;54.856;26.318;2023-02-28T13:36:23;2;1.3;1
45788;PMS7003;31492;54.856;26.318;2023-02-28T13:41:45;1.4;1.2;0.9
45788;PMS7003;31492;54.856;26.318;2023-02-28T13:46:21;2.1;1.4;0.9
45788;PMS7003;31492;54.856;26.318;2023-02-28T13:51:28;1.7;1.4;1
45788;PMS7003;31492;54.856;26.318;2023-02-28T13:56:21;1.8;1.7;1.1
45788;PMS7003;31492;54.856;26.318;2023-02-28T14:01:14;3.1;1.7;1.2
45788;PMS7003;31492;54.856;26.318;2023-02-28T14:06:37;2.2;1.7;1.3
45788;PMS7003;31492;54.856;26.318;2023-02-28T14:11:29;3.3;2.1;1.5
45788;PMS7003;31492;54.856;26.318;2023-02-28T14:16:11;2.8;2.3;1.4
45788;PMS7003;31492;54.856;26.318;2023-02-28T14:21:49;3.9;3;2.2
45788;PMS7003;31492;54.856;26.318;2023-02-28T14:26:22;2.7;2.2;1.7
45788;PMS7003;31492;54.856;26.318;2023-02-28T14:31:11;3.2;2.5;1.8
45788;PMS7003;31492;54.856;26.318;2023-02-28T14:36:13;3.3;2.6;2
45788;PMS7003;31492;54.856;26.318;2023-02-28T14:41:14;3.9;2.8;2.3
45788;PMS7003;31492;54.856;26.318;2023-02-28T14:46:11;4;3;2.1
45788;PMS7003;31492;54.856;26.318;2023-02-28T14:51:11;12.4;9.9;6.5
45788;PMS7003;31492;54.856;26.318;2023-02-28T14:56:36;41.1;32.4;19.7
45788;PMS7003;31492;54.856;26.318;2023-02-28T15:01:11;52.3;40.7;23.7
45788;PMS7003;31492;54.856;26.318;2023-02-28T15:06:12;22.7;17.5;12
45788;PMS7003;31492;54.856;26.318;2023-02-28T15:11:21;14.2;11.2;7.6
45788;PMS7003;31492;54.856;26.318;2023-02-28T15:16:32;19.2;16.6;11.6
45788;PMS7003;31492;54.856;26.318;2023-02-28T15:21:38;11.9;10;7.6
45788;PMS7003;31492;54.856;26.318;2023-02-28T15:26:30;8;6.5;5.1
45788;PMS7003;31492;54.856;26.318;2023-02-28T15:31:39;3.9;3.5;2.5
45788;PMS7003;31492;54.856;26.318;2023-02-28T15:36:13;15.7;12.3;9.2
45788;PMS7003;31492;54.856;26.318;2023-02-28T15:41:24;3.6;2.2;1.8
45788;PMS7003;31492;54.856;26.318;2023-02-28T15:46:12;4.5;3.4;2.9
45788;PMS7003;31492;54.856;26.318;2023-02-28T15:51:30;4.6;3.4;2.8
45788;PMS7003;31492;54.856;26.318;2023-02-28T15:56:16;5.8;4.6;3.6
45788;PMS7003;31492;54.856;26.318;2023-02-28T16:01:24;6.4;5;3.7
45788;PMS7003;31492;54.856;26.318;2023-02-28T16:06:36;3.4;2.6;2
45788;PMS7003;31492;54.856;26.318;2023-02-28T16:11:11;3.4;2.9;2.3
45788;PMS7003;31492;54.856;26.318;2023-02-28T16:16:22;3.7;2.5;1.8
45788;PMS7003;31492;54.856;26.318;2023-02-28T16:21:25;2.6;2.2;1.6
45788;PMS7003;31492;54.856;26.318;2023-02-28T16:26:14;2.8;2.5;1.8
45788;PMS7003;31492;54.856;26.318;2023-02-28T16:31:19;3;2.8;2
45788;PMS7003;31492;54.856;26.318;2023-02-28T16:36:13;3.8;2.3;1.9
45788;PMS7003;31492;54.856;26.318;2023-02-28T16:41:20;2.8;2.1;1.5
45788;PMS7003;31492;54.856;26.318;2023-02-28T16:46:27;3.4;2.5;1.9
45788;PMS7003;31492;54.856;26.318;2023-02-28T16:51:11;3;2.5;2.1
45788;PMS7003;31492;54.856;26.318;2023-02-28T16:56:20;3.1;2.2;1.6
45788;PMS7003;31492;54.856;26.318;2023-02-28T17:01:23;3;2.3;1.8
45788;PMS7003;31492;54.856;26.318;2023-02-28T17:06:22;2.3;1.9;1.2
45788;PMS7003;31492;54.856;26.318;2023-02-28T17:11:23;2.9;1.8;1.4
45788;PMS7003;31492;54.856;26.318;2023-02-28T17:16:14;2.9;2.5;1.9
45788;PMS7003;31492;54.856;26.318;2023-02-28T17:21:13;3.6;2.4;1.9
45788;PMS7003;31492;54.856;26.318;2023-02-28T17:26:12;3.8;2.8;2
45788;PMS7003;31492;54.856;26.318;2023-02-28T17:31:33;4.7;2.9;2.2
45788;PMS7003;31492;54.856;26.318;2023-02-28T17:36:22;3.8;3.1;2.4
45788;PMS7003;31492;54.856;26.318;2023-02-28T17:41:25;3.4;2.9;2.2
45788;PMS7003;31492;54.856;26.318;2023-02-28T17:46:14;4;3.2;2.4
45788;PMS7003;31492;54.856;26.318;2023-02-28T17:51:33;4.8;2.9;2.2
45788;PMS7003;31492;54.856;26.318;2023-02-28T17:56:22;5.5;3.9;2.8
45788;PMS7003;31492;54.856;26.318;2023-02-28T18:01:11;5;3.5;2.6
45788;PMS7003;31492;54.856;26.318;2023-02-28T18:06:13;3.7;2.8;2.1
45788;PMS7003;31492;54.856;26.318;2023-02-28T18:11:11;4.2;3.4;2.4
45788;PMS7003;31492;54.856;26.318;2023-02-28T18:16:11;4.1;2.8;2.1
45788;PMS7003;31492;54.856;26.318;2023-02-28T18:21:12;3.9;2.8;2.2
45788;PMS7003;31492;54.856;26.318;2023-02-28T18:26:11;3.9;3.2;2.4
45788;PMS7003;31492;54.856;26.318;2023-02-28T18:31:25;3.6;2.7;2
45788;PMS7003;31492;54.856;26.318;2023-02-28T18:36:20;4.6;3.4;2.5
45788;PMS7003;31492;54.856;26.318;2023-02-28T18:41:20;4.4;3.3;2.7
45788;PMS7003;31492;54.856;26.318;2023-02-28T18:46:33;4;3;2.3
45788;PMS7003;31492;54.856;26.318;2023-02-28T18:51:22;4.6;2.8;2.2
45788;PMS7003;31492;54.856;26.318;2023-02-28T18:56:25;3.3;2.8;2.2
45788;PMS7003;31492;54.856;26.318;2023-02-28T19:01:14;4.1;2.9;2.2
45788;PMS7003;31492;54.856;26.318;2023-02-28T19:06:11;4.5;3.2;2.5
45788;PMS7003;31492;54.856;26.318;2023-02-28T19:11:21;3.4;2.7;2
45788;PMS7003;31492;54.856;26.318;2023-02-28T19:16:23;4.2;3.2;2.3
45788;PMS7003;31492;54.856;26.318;2023-02-28T19:21:33;3.7;2.9;2.1
45788;PMS7003;31492;54.856;26.318;2023-02-28T19:26:12;4.3;3.1;2.3
45788;PMS7003;31492;54.856;26.318;2023-02-28T19:31:25;3.6;2.8;2.1
45788;PMS7003;31492;54.856;26.318;2023-02-28T19:36:21;4;3.1;2.5
45788;PMS7003;31492;54.856;26.318;2023-02-28T19:41:33;3.2;2.8;2.3
45788;PMS7003;31492;54.856;26.318;2023-02-28T19:46:19;5.1;3.5;2.6
45788;PMS7003;31492;54.856;26.318;2023-02-28T19:51:12;3.8;3;2
45788;PMS7003;31492;54.856;26.318;2023-02-28T19:56:25;3.9;2.6;2
45788;PMS7003;31492;54.856;26.318;2023-02-28T20:01:13;3.9;2.8;2.1
45788;PMS7003;31492;54.856;26.318;2023-02-28T20:06:23;5.2;2.7;1.9
45788;PMS7003;31492;54.856;26.318;2023-02-28T20:11:11;2.9;2.3;1.7
45788;PMS7003;31492;54.856;26.318;2023-02-28T20:16:33;3.3;2.8;2
45788;PMS7003;31492;54.856;26.318;2023-02-28T20:21:12;3.6;2.5;1.8
45788;PMS7003;31492;54.856;26.318;2023-02-28T20:26:42;3;2.3;1.7
45788;PMS7003;31492;54.856;26.318;2023-02-28T20:31:12;2.8;1.8;1.4
45788;PMS7003;31492;54.856;26.318;2023-02-28T20:36:33;3.6;2.6;1.9
45788;PMS7003;31492;54.856;26.318;2023-02-28T20:41:19;2.9;2.3;1.8
45788;PMS7003;31492;54.856;26.318;2023-02-28T20:46:25;2.4;2.1;1.7
45788;PMS7003;31492;54.856;26.318;2023-02-28T20:51:21;2.9;2.2;1.5
45788;PMS7003;31492;54.856;26.318;2023-02-28T20:56:12;3.4;2.3;1.8
45788;PMS7003;31492;54.856;26.318;2023-02-28T21:01:13;2.3;2;1.6
45788;PMS7003;31492;54.856;26.318;2023-02-28T21:06:20;3;2;1.6
45788;PMS7003;31492;54.856;26.318;2023-02-28T21:11:12;2.6;2.1;1.4
45788;PMS7003;31492;54.856;26.318;2023-02-28T21:16:43;2.8;2.2;1.6
45788;PMS7003;31492;54.856;26.318;2023-02-28T21:21:12;2.5;2;1.3
45788;PMS7003;31492;54.856;26.318;2023-02-28T21:26:33;2.1;1.7;1.2
45788;PMS7003;31492;54.856;26.318;2023-02-28T21:31:12;2.1;1.7;1.2
45788;PMS7003;31492;54.856;26.318;2023-02-28T21:36:12;2;1.7;1.3
45788;PMS7003;31492;54.856;26.318;2023-02-28T21:41:43;2;1.4;1.1
45788;PMS7003;31492;54.856;26.318;2023-02-28T21:46:12;2.6;2;1.6
45788;PMS7003;31492;54.856;26.318;2023-02-28T21:51:22;1.7;1.4;1
45788;PMS7003;31492;54.856;26.318;2023-02-28T21:56:12;1.4;1.3;0.9
45788;PMS7003;31492;54.856;26.318;2023-02-28T22:01:18;1.7;1.4;0.9
45788;PMS7003;31492;54.856;26.318;2023-02-28T22:06:34;1.7;1.3;0.9
45788;PMS7003;31492;54.856;26.318;2023-02-28T22:11:11;1.7;1;0.8
45788;PMS7003;31492;54.856;26.318;2023-02-28T22:16:12;1.9;1.4;0.8
45788;PMS7003;31492;54.856;26.318;2023-02-28T22:21:33;1.7;1.1;0.8
45788;PMS7003;31492;54.856;26.318;2023-02-28T22:26:25;1.8;1.5;0.9
45788;PMS7003;31492;54.856;26.318;2023-02-28T22:31:22;1.4;0.9;0.6
45788;PMS7003;31492;54.856;26.318;2023-02-28T22:36:21;1.5;0.9;0.5
45788;PMS7003;31492;54.856;26.318;2023-02-28T22:41:11;1.6;1.3;1
45788;PMS7003;31492;54.856;26.318;2023-02-28T22:46:33;1.9;1.2;1
45788;PMS7003;31492;54.856;26.318;2023-02-28T22:51:25;2.4;1.7;1.3
45788;PMS7003;31492;54.856;26.318;2023-02-28T22:56:12;2.2;1.6;1.3
45788;PMS7003;31492;54.856;26.318;2023-02-28T23:01:12;2;1.7;1.2
45788;PMS7003;31492;54.856;26.318;2023-02-28T23:06:12;2.5;1.7;1.4
45788;PMS7003;31492;54.856;26.318;2023-02-28T23:11:35;2.5;1.4;1.1
45788;PMS7003;31492;54.856;26.318;2023-02-28T23:16:11;2.4;1.8;1.2
45788;PMS7003;31492;54.856;26.318;2023-02-28T23:21:11;2.1;1.6;1.2
45788;PMS7003;31492;54.856;26.318;2023-02-28T23:26:11;2.5;1.8;1.3
45788;PMS7003;31492;54.856;26.318;2023-02-28T23:31:11;2.2;1.8;1.2
45788;PMS7003;31492;54.856;26.318;2023-02-28T23:36:17;2.2;1.6;1.4
45788;PMS7003;31492;54.856;26.318;2023-02-28T23:41:11;1.7;1.6;1.2
45788;PMS7003;31492;54.856;26.318;2023-02-28T23:46:17;1.5;1.3;0.9
45788;PMS7003;31492;54.856;26.318;2023-02-28T23:51:12;1.9;1.6;1.3
45788;PMS7003;31492;54.856;26.318;2023-02-28T23:56:18;2.3;1.8;1.4
